sensor_id;sensor_type;location;lat;lon;timestamp;P1;durP1;ratioP1;P2;durP2;ratioP2
15996;SDS011;8103;51.340;12.326;2022-10-16T00:01:39;2.25;;;0.88;;
15996;SDS011;8103;51.340;12.326;2022-10-16T00:04:09;2.58;;;0.80;;
15996;SDS011;8103;51.340;12.326;2022-10-16T00:06:36;2.45;;;0.93;;
15996;SDS011;8103;51.340;12.326;2022-10-16T00:09:04;0.40;;;0.40;;
15996;SDS011;8103;51.340;12.326;2022-10-16T00:11:33;1.20;;;0.88;;
15996;SDS011;8103;51.340;12.326;2022-10-16T00:14:04;2.45;;;0.80;;
15996;SDS011;8103;51.340;12.326;2022-10-16T00:16:38;2.17;;;1.13;;
15996;SDS011;8103;51.340;12.326;2022-10-16T00:19:06;1.98;;;0.80;;
15996;SDS011;8103;51.340;12.326;2022-10-16T00:21:33;2.08;;;0.85;;
15996;SDS011;8103;51.340;12.326;2022-10-16T00:24:05;1.15;;;0.98;;
15996;SDS011;8103;51.340;12.326;2022-10-16T00:26:35;1.05;;;0.90;;
15996;SDS011;8103;51.340;12.326;2022-10-16T00:29:03;0.98;;;0.85;;
15996;SDS011;8103;51.340;12.326;2022-10-16T00:31:32;0.70;;;0.70;;
15996;SDS011;8103;51.340;12.326;2022-10-16T00:33:59;0.90;;;0.70;;
15996;SDS011;8103;51.340;12.326;2022-10-16T00:36:31;1.00;;;0.60;;
15996;SDS011;8103;51.340;12.326;2022-10-16T00:38:58;1.67;;;0.70;;
15996;SDS011;8103;51.340;12.326;2022-10-16T00:41:32;0.65;;;0.65;;
15996;SDS011;8103;51.340;12.326;2022-10-16T00:44:01;0.80;;;0.80;;
15996;SDS011;8103;51.340;12.326;2022-10-16T00:46:49;1.10;;;0.88;;
15996;SDS011;8103;51.340;12.326;2022-10-16T00:49:18;0.70;;;0.60;;
15996;SDS011;8103;51.340;12.326;2022-10-16T00:51:50;0.80;;;0.57;;
15996;SDS011;8103;51.340;12.326;2022-10-16T00:54:23;1.02;;;0.70;;
15996;SDS011;8103;51.340;12.326;2022-10-16T00:56:58;2.58;;;0.70;;
15996;SDS011;8103;51.340;12.326;2022-10-16T00:59:31;1.75;;;0.73;;
15996;SDS011;8103;51.340;12.326;2022-10-16T01:02:07;0.60;;;0.50;;
15996;SDS011;8103;51.340;12.326;2022-10-16T01:04:39;0.73;;;0.63;;
15996;SDS011;8103;51.340;12.326;2022-10-16T01:07:14;0.80;;;0.65;;
15996;SDS011;8103;51.340;12.326;2022-10-16T01:10:06;2.03;;;0.80;;
15996;SDS011;8103;51.340;12.326;2022-10-16T01:12:54;1.95;;;0.70;;
15996;SDS011;8103;51.340;12.326;2022-10-16T01:15:41;1.05;;;0.60;;
15996;SDS011;8103;51.340;12.326;2022-10-16T01:18:34;1.15;;;1.05;;
15996;SDS011;8103;51.340;12.326;2022-10-16T01:21:16;1.85;;;0.77;;
15996;SDS011;8103;51.340;12.326;2022-10-16T01:27:10;1.25;;;0.88;;
15996;SDS011;8103;51.340;12.326;2022-10-16T01:30:01;0.77;;;0.77;;
15996;SDS011;8103;51.340;12.326;2022-10-16T01:32:52;0.90;;;0.68;;
15996;SDS011;8103;51.340;12.326;2022-10-16T01:35:52;0.60;;;0.60;;
15996;SDS011;8103;51.340;12.326;2022-10-16T01:38:33;0.73;;;0.73;;
15996;SDS011;8103;51.340;12.326;2022-10-16T01:41:09;1.77;;;0.65;;
15996;SDS011;8103;51.340;12.326;2022-10-16T01:43:53;0.73;;;0.73;;
15996;SDS011;8103;51.340;12.326;2022-10-16T01:46:33;2.55;;;1.05;;
15996;SDS011;8103;51.340;12.326;2022-10-16T01:49:05;0.85;;;0.68;;
15996;SDS011;8103;51.340;12.326;2022-10-16T01:51:35;0.90;;;0.80;;
15996;SDS011;8103;51.340;12.326;2022-10-16T01:54:04;1.65;;;1.52;;
15996;SDS011;8103;51.340;12.326;2022-10-16T01:56:34;1.77;;;0.82;;
15996;SDS011;8103;51.340;12.326;2022-10-16T01:59:05;0.73;;;0.73;;
15996;SDS011;8103;51.340;12.326;2022-10-16T02:01:40;1.15;;;0.80;;
15996;SDS011;8103;51.340;12.326;2022-10-16T02:04:21;0.98;;;0.70;;
15996;SDS011;8103;51.340;12.326;2022-10-16T02:06:58;0.80;;;0.77;;
15996;SDS011;8103;51.340;12.326;2022-10-16T02:09:25;1.50;;;1.08;;
15996;SDS011;8103;51.340;12.326;2022-10-16T02:11:53;1.33;;;1.10;;
15996;SDS011;8103;51.340;12.326;2022-10-16T02:14:25;0.70;;;0.65;;
15996;SDS011;8103;51.340;12.326;2022-10-16T02:16:53;1.13;;;1.02;;
15996;SDS011;8103;51.340;12.326;2022-10-16T02:19:20;1.02;;;0.93;;
15996;SDS011;8103;51.340;12.326;2022-10-16T02:21:54;1.30;;;0.98;;
15996;SDS011;8103;51.340;12.326;2022-10-16T02:24:33;3.13;;;0.80;;
15996;SDS011;8103;51.340;12.326;2022-10-16T02:27:17;0.63;;;0.60;;
15996;SDS011;8103;51.340;12.326;2022-10-16T02:30:38;0.73;;;0.65;;
15996;SDS011;8103;51.340;12.326;2022-10-16T02:33:02;0.90;;;0.60;;
15996;SDS011;8103;51.340;12.326;2022-10-16T02:35:35;1.05;;;0.70;;
15996;SDS011;8103;51.340;12.326;2022-10-16T02:38:04;0.75;;;0.75;;
15996;SDS011;8103;51.340;12.326;2022-10-16T02:40:33;1.27;;;0.60;;
15996;SDS011;8103;51.340;12.326;2022-10-16T02:43:03;0.57;;;0.55;;
15996;SDS011;8103;51.340;12.326;2022-10-16T02:45:32;1.48;;;0.60;;
15996;SDS011;8103;51.340;12.326;2022-10-16T02:47:59;1.20;;;0.90;;
15996;SDS011;8103;51.340;12.326;2022-10-16T02:50:26;0.70;;;0.68;;
15996;SDS011;8103;51.340;12.326;2022-10-16T02:52:53;1.33;;;0.80;;
15996;SDS011;8103;51.340;12.326;2022-10-16T02:55:20;0.80;;;0.70;;
15996;SDS011;8103;51.340;12.326;2022-10-16T02:57:48;0.65;;;0.65;;
15996;SDS011;8103;51.340;12.326;2022-10-16T03:00:16;1.70;;;0.77;;
15996;SDS011;8103;51.340;12.326;2022-10-16T03:02:44;0.75;;;0.70;;
15996;SDS011;8103;51.340;12.326;2022-10-16T03:05:11;1.02;;;0.75;;
15996;SDS011;8103;51.340;12.326;2022-10-16T03:07:39;1.50;;;0.77;;
15996;SDS011;8103;51.340;12.326;2022-10-16T03:10:06;2.08;;;0.70;;
15996;SDS011;8103;51.340;12.326;2022-10-16T03:12:34;1.10;;;0.70;;
15996;SDS011;8103;51.340;12.326;2022-10-16T03:15:01;1.63;;;0.98;;
15996;SDS011;8103;51.340;12.326;2022-10-16T03:17:29;1.10;;;0.82;;
15996;SDS011;8103;51.340;12.326;2022-10-16T03:19:58;0.60;;;0.60;;
15996;SDS011;8103;51.340;12.326;2022-10-16T03:22:25;1.10;;;0.88;;
15996;SDS011;8103;51.340;12.326;2022-10-16T03:24:52;1.00;;;0.88;;
15996;SDS011;8103;51.340;12.326;2022-10-16T03:27:20;1.20;;;0.88;;
15996;SDS011;8103;51.340;12.326;2022-10-16T03:29:47;0.70;;;0.70;;
15996;SDS011;8103;51.340;12.326;2022-10-16T03:32:14;1.13;;;1.02;;
15996;SDS011;8103;51.340;12.326;2022-10-16T03:34:41;1.40;;;1.00;;
15996;SDS011;8103;51.340;12.326;2022-10-16T03:37:08;1.15;;;1.05;;
15996;SDS011;8103;51.340;12.326;2022-10-16T03:39:35;1.15;;;0.82;;
15996;SDS011;8103;51.340;12.326;2022-10-16T03:42:02;0.88;;;0.75;;
15996;SDS011;8103;51.340;12.326;2022-10-16T03:44:29;3.22;;;0.90;;
15996;SDS011;8103;51.340;12.326;2022-10-16T03:46:56;0.93;;;0.75;;
15996;SDS011;8103;51.340;12.326;2022-10-16T03:49:23;1.70;;;1.25;;
15996;SDS011;8103;51.340;12.326;2022-10-16T03:51:50;1.27;;;1.17;;
15996;SDS011;8103;51.340;12.326;2022-10-16T03:54:17;0.95;;;0.82;;
15996;SDS011;8103;51.340;12.326;2022-10-16T03:56:44;1.05;;;0.93;;
15996;SDS011;8103;51.340;12.326;2022-10-16T03:59:11;1.10;;;0.98;;
15996;SDS011;8103;51.340;12.326;2022-10-16T04:01:38;1.42;;;1.02;;
15996;SDS011;8103;51.340;12.326;2022-10-16T04:04:05;1.00;;;0.90;;
15996;SDS011;8103;51.340;12.326;2022-10-16T04:06:32;1.42;;;0.70;;
15996;SDS011;8103;51.340;12.326;2022-10-16T04:08:59;1.15;;;0.88;;
15996;SDS011;8103;51.340;12.326;2022-10-16T04:11:26;0.93;;;0.75;;
15996;SDS011;8103;51.340;12.326;2022-10-16T04:13:53;1.15;;;0.90;;
15996;SDS011;8103;51.340;12.326;2022-10-16T04:16:20;0.95;;;0.80;;
15996;SDS011;8103;51.340;12.326;2022-10-16T04:18:47;0.77;;;0.77;;
15996;SDS011;8103;51.340;12.326;2022-10-16T04:21:14;1.50;;;1.25;;
15996;SDS011;8103;51.340;12.326;2022-10-16T04:23:42;0.93;;;0.90;;
15996;SDS011;8103;51.340;12.326;2022-10-16T04:26:09;1.10;;;1.00;;
15996;SDS011;8103;51.340;12.326;2022-10-16T04:28:36;1.42;;;0.88;;
15996;SDS011;8103;51.340;12.326;2022-10-16T04:31:04;1.30;;;0.88;;
15996;SDS011;8103;51.340;12.326;2022-10-16T04:33:32;0.85;;;0.70;;
15996;SDS011;8103;51.340;12.326;2022-10-16T04:36:00;1.88;;;0.70;;
15996;SDS011;8103;51.340;12.326;2022-10-16T04:38:30;1.50;;;1.02;;
15996;SDS011;8103;51.340;12.326;2022-10-16T04:40:57;1.33;;;0.88;;
15996;SDS011;8103;51.340;12.326;2022-10-16T04:43:24;1.52;;;0.90;;
15996;SDS011;8103;51.340;12.326;2022-10-16T04:45:52;0.70;;;0.70;;
15996;SDS011;8103;51.340;12.326;2022-10-16T04:48:20;1.58;;;1.00;;
15996;SDS011;8103;51.340;12.326;2022-10-16T04:50:48;2.58;;;1.23;;
15996;SDS011;8103;51.340;12.326;2022-10-16T04:53:18;1.45;;;0.90;;
15996;SDS011;8103;51.340;12.326;2022-10-16T04:55:45;2.13;;;1.00;;
15996;SDS011;8103;51.340;12.326;2022-10-16T04:58:12;0.98;;;0.88;;
15996;SDS011;8103;51.340;12.326;2022-10-16T05:00:39;1.08;;;0.95;;
15996;SDS011;8103;51.340;12.326;2022-10-16T05:03:06;1.00;;;1.00;;
15996;SDS011;8103;51.340;12.326;2022-10-16T05:05:35;1.65;;;0.98;;
15996;SDS011;8103;51.340;12.326;2022-10-16T05:08:02;1.73;;;0.95;;
15996;SDS011;8103;51.340;12.326;2022-10-16T05:10:30;2.42;;;1.13;;
15996;SDS011;8103;51.340;12.326;2022-10-16T05:12:57;1.10;;;1.00;;
15996;SDS011;8103;51.340;12.326;2022-10-16T05:15:24;2.75;;;1.00;;
15996;SDS011;8103;51.340;12.326;2022-10-16T05:17:52;1.35;;;0.95;;
15996;SDS011;8103;51.340;12.326;2022-10-16T05:20:20;0.70;;;0.70;;
15996;SDS011;8103;51.340;12.326;2022-10-16T05:22:48;3.30;;;1.45;;
15996;SDS011;8103;51.340;12.326;2022-10-16T05:25:15;2.53;;;1.13;;
15996;SDS011;8103;51.340;12.326;2022-10-16T05:27:43;1.08;;;1.00;;
15996;SDS011;8103;51.340;12.326;2022-10-16T05:30:14;0.90;;;0.90;;
15996;SDS011;8103;51.340;12.326;2022-10-16T05:32:46;1.83;;;1.08;;
15996;SDS011;8103;51.340;12.326;2022-10-16T05:35:15;0.77;;;0.77;;
15996;SDS011;8103;51.340;12.326;2022-10-16T05:37:44;1.27;;;0.90;;
15996;SDS011;8103;51.340;12.326;2022-10-16T05:40:12;1.33;;;1.23;;
15996;SDS011;8103;51.340;12.326;2022-10-16T05:42:40;2.10;;;1.20;;
15996;SDS011;8103;51.340;12.326;2022-10-16T05:45:08;1.27;;;1.17;;
15996;SDS011;8103;51.340;12.326;2022-10-16T05:47:38;2.30;;;1.25;;
15996;SDS011;8103;51.340;12.326;2022-10-16T05:50:05;1.40;;;1.27;;
15996;SDS011;8103;51.340;12.326;2022-10-16T05:52:33;4.18;;;1.50;;
15996;SDS011;8103;51.340;12.326;2022-10-16T05:55:00;4.93;;;1.90;;
15996;SDS011;8103;51.340;12.326;2022-10-16T05:57:27;1.63;;;1.40;;
15996;SDS011;8103;51.340;12.326;2022-10-16T05:59:55;2.10;;;1.17;;
15996;SDS011;8103;51.340;12.326;2022-10-16T06:02:22;1.73;;;1.50;;
15996;SDS011;8103;51.340;12.326;2022-10-16T06:04:49;2.15;;;1.30;;
15996;SDS011;8103;51.340;12.326;2022-10-16T06:07:20;1.17;;;1.08;;
15996;SDS011;8103;51.340;12.326;2022-10-16T06:09:48;4.00;;;1.42;;
15996;SDS011;8103;51.340;12.326;2022-10-16T06:12:17;2.55;;;1.00;;
15996;SDS011;8103;51.340;12.326;2022-10-16T06:14:45;1.55;;;1.02;;
15996;SDS011;8103;51.340;12.326;2022-10-16T06:17:32;1.45;;;1.05;;
15996;SDS011;8103;51.340;12.326;2022-10-16T06:19:59;1.25;;;1.15;;
15996;SDS011;8103;51.340;12.326;2022-10-16T06:22:27;1.20;;;1.10;;
15996;SDS011;8103;51.340;12.326;2022-10-16T06:24:54;1.55;;;0.90;;
15996;SDS011;8103;51.340;12.326;2022-10-16T06:27:21;1.30;;;0.88;;
15996;SDS011;8103;51.340;12.326;2022-10-16T06:29:48;1.15;;;0.65;;
15996;SDS011;8103;51.340;12.326;2022-10-16T06:32:15;1.15;;;1.05;;
15996;SDS011;8103;51.340;12.326;2022-10-16T06:34:43;1.35;;;1.20;;
15996;SDS011;8103;51.340;12.326;2022-10-16T06:37:10;3.72;;;1.23;;
15996;SDS011;8103;51.340;12.326;2022-10-16T06:39:37;4.90;;;1.00;;
15996;SDS011;8103;51.340;12.326;2022-10-16T06:42:04;1.88;;;1.25;;
15996;SDS011;8103;51.340;12.326;2022-10-16T06:44:31;1.80;;;1.20;;
15996;SDS011;8103;51.340;12.326;2022-10-16T06:46:58;1.90;;;1.17;;
15996;SDS011;8103;51.340;12.326;2022-10-16T06:49:25;2.75;;;1.30;;
15996;SDS011;8103;51.340;12.326;2022-10-16T06:51:52;1.30;;;1.20;;
15996;SDS011;8103;51.340;12.326;2022-10-16T06:54:19;4.05;;;1.67;;
15996;SDS011;8103;51.340;12.326;2022-10-16T06:56:46;1.25;;;1.10;;
15996;SDS011;8103;51.340;12.326;2022-10-16T06:59:13;1.40;;;1.00;;
15996;SDS011;8103;51.340;12.326;2022-10-16T07:01:41;4.55;;;1.27;;
15996;SDS011;8103;51.340;12.326;2022-10-16T07:04:08;1.35;;;1.25;;
15996;SDS011;8103;51.340;12.326;2022-10-16T07:06:35;2.70;;;1.10;;
15996;SDS011;8103;51.340;12.326;2022-10-16T07:09:03;1.90;;;1.15;;
15996;SDS011;8103;51.340;12.326;2022-10-16T07:11:33;1.65;;;1.10;;
15996;SDS011;8103;51.340;12.326;2022-10-16T07:14:01;3.70;;;1.17;;
15996;SDS011;8103;51.340;12.326;2022-10-16T07:16:31;2.75;;;1.25;;
15996;SDS011;8103;51.340;12.326;2022-10-16T07:18:59;1.20;;;1.10;;
15996;SDS011;8103;51.340;12.326;2022-10-16T07:21:30;2.67;;;1.10;;
15996;SDS011;8103;51.340;12.326;2022-10-16T07:24:06;1.13;;;1.02;;
15996;SDS011;8103;51.340;12.326;2022-10-16T07:26:39;3.58;;;1.17;;
15996;SDS011;8103;51.340;12.326;2022-10-16T07:29:16;1.00;;;0.90;;
15996;SDS011;8103;51.340;12.326;2022-10-16T07:31:46;2.75;;;1.17;;
15996;SDS011;8103;51.340;12.326;2022-10-16T07:34:15;3.53;;;1.00;;
15996;SDS011;8103;51.340;12.326;2022-10-16T07:36:44;2.28;;;1.00;;
15996;SDS011;8103;51.340;12.326;2022-10-16T07:39:14;0.80;;;0.75;;
15996;SDS011;8103;51.340;12.326;2022-10-16T07:41:41;0.93;;;0.82;;
15996;SDS011;8103;51.340;12.326;2022-10-16T07:44:08;3.17;;;1.00;;
15996;SDS011;8103;51.340;12.326;2022-10-16T07:46:35;1.00;;;0.80;;
15996;SDS011;8103;51.340;12.326;2022-10-16T07:49:03;1.77;;;0.90;;
15996;SDS011;8103;51.340;12.326;2022-10-16T07:51:30;2.42;;;0.73;;
15996;SDS011;8103;51.340;12.326;2022-10-16T07:53:57;1.45;;;1.00;;
15996;SDS011;8103;51.340;12.326;2022-10-16T07:56:25;1.10;;;0.90;;
15996;SDS011;8103;51.340;12.326;2022-10-16T07:58:52;1.02;;;0.73;;
15996;SDS011;8103;51.340;12.326;2022-10-16T08:01:19;1.08;;;0.82;;
15996;SDS011;8103;51.340;12.326;2022-10-16T08:03:48;1.52;;;1.05;;
15996;SDS011;8103;51.340;12.326;2022-10-16T08:06:18;1.50;;;1.40;;
15996;SDS011;8103;51.340;12.326;2022-10-16T08:08:48;1.33;;;1.10;;
15996;SDS011;8103;51.340;12.326;2022-10-16T08:11:15;2.72;;;1.25;;
15996;SDS011;8103;51.340;12.326;2022-10-16T08:13:42;1.50;;;0.90;;
15996;SDS011;8103;51.340;12.326;2022-10-16T08:16:09;1.42;;;0.95;;
15996;SDS011;8103;51.340;12.326;2022-10-16T08:18:38;3.55;;;1.10;;
15996;SDS011;8103;51.340;12.326;2022-10-16T08:21:06;2.45;;;0.93;;
15996;SDS011;8103;51.340;12.326;2022-10-16T08:23:43;1.38;;;1.13;;
15996;SDS011;8103;51.340;12.326;2022-10-16T08:26:11;1.70;;;1.40;;
15996;SDS011;8103;51.340;12.326;2022-10-16T08:28:38;1.75;;;0.50;;
15996;SDS011;8103;51.340;12.326;2022-10-16T08:31:10;2.40;;;1.25;;
15996;SDS011;8103;51.340;12.326;2022-10-16T08:33:40;3.90;;;1.10;;
15996;SDS011;8103;51.340;12.326;2022-10-16T08:36:11;0.70;;;0.52;;
15996;SDS011;8103;51.340;12.326;2022-10-16T08:38:39;0.40;;;0.40;;
15996;SDS011;8103;51.340;12.326;2022-10-16T08:50:30;0.63;;;0.60;;
15996;SDS011;8103;51.340;12.326;2022-10-16T08:53:03;0.90;;;0.47;;
15996;SDS011;8103;51.340;12.326;2022-10-16T08:55:34;1.50;;;0.80;;
15996;SDS011;8103;51.340;12.326;2022-10-16T08:58:16;0.60;;;0.40;;
15996;SDS011;8103;51.340;12.326;2022-10-16T09:00:47;3.80;;;0.68;;
15996;SDS011;8103;51.340;12.326;2022-10-16T09:03:23;0.47;;;0.47;;
15996;SDS011;8103;51.340;12.326;2022-10-16T09:12:24;0.20;;;0.20;;
15996;SDS011;8103;51.340;12.326;2022-10-16T09:15:35;2.28;;;0.32;;
15996;SDS011;8103;51.340;12.326;2022-10-16T09:21:03;1.85;;;0.50;;
15996;SDS011;8103;51.340;12.326;2022-10-16T09:23:34;2.13;;;0.65;;
15996;SDS011;8103;51.340;12.326;2022-10-16T09:26:03;1.85;;;0.60;;
15996;SDS011;8103;51.340;12.326;2022-10-16T09:28:35;1.40;;;0.50;;
15996;SDS011;8103;51.340;12.326;2022-10-16T09:31:02;0.38;;;0.38;;
15996;SDS011;8103;51.340;12.326;2022-10-16T09:33:30;0.52;;;0.40;;
15996;SDS011;8103;51.340;12.326;2022-10-16T09:36:04;0.45;;;0.45;;
15996;SDS011;8103;51.340;12.326;2022-10-16T09:38:33;0.40;;;0.40;;
15996;SDS011;8103;51.340;12.326;2022-10-16T09:41:23;1.52;;;0.82;;
15996;SDS011;8103;51.340;12.326;2022-10-16T09:43:54;1.13;;;0.70;;
15996;SDS011;8103;51.340;12.326;2022-10-16T09:48:56;1.13;;;0.50;;
15996;SDS011;8103;51.340;12.326;2022-10-16T09:51:29;2.08;;;0.63;;
15996;SDS011;8103;51.340;12.326;2022-10-16T09:56:35;5.80;;;1.38;;
15996;SDS011;8103;51.340;12.326;2022-10-16T10:01:44;0.88;;;0.65;;
15996;SDS011;8103;51.340;12.326;2022-10-16T10:04:22;1.98;;;0.60;;
15996;SDS011;8103;51.340;12.326;2022-10-16T10:07:03;0.90;;;0.77;;
15996;SDS011;8103;51.340;12.326;2022-10-16T10:09:32;0.93;;;0.68;;
15996;SDS011;8103;51.340;12.326;2022-10-16T10:12:06;1.10;;;0.73;;
15996;SDS011;8103;51.340;12.326;2022-10-16T10:14:52;1.75;;;0.82;;
15996;SDS011;8103;51.340;12.326;2022-10-16T10:17:23;0.60;;;0.55;;
15996;SDS011;8103;51.340;12.326;2022-10-16T10:20:00;2.38;;;0.50;;
15996;SDS011;8103;51.340;12.326;2022-10-16T10:22:52;0.95;;;0.80;;
15996;SDS011;8103;51.340;12.326;2022-10-16T10:25:54;1.85;;;0.57;;
15996;SDS011;8103;51.340;12.326;2022-10-16T10:31:26;2.03;;;0.80;;
15996;SDS011;8103;51.340;12.326;2022-10-16T10:37:20;1.02;;;0.93;;
15996;SDS011;8103;51.340;12.326;2022-10-16T10:42:44;0.93;;;0.65;;
15996;SDS011;8103;51.340;12.326;2022-10-16T10:45:28;1.50;;;0.85;;
15996;SDS011;8103;51.340;12.326;2022-10-16T10:48:17;0.40;;;0.40;;
15996;SDS011;8103;51.340;12.326;2022-10-16T10:51:11;1.27;;;0.70;;
15996;SDS011;8103;51.340;12.326;2022-10-16T10:54:53;2.15;;;1.95;;
15996;SDS011;8103;51.340;12.326;2022-10-16T10:57:30;1.30;;;0.90;;
15996;SDS011;8103;51.340;12.326;2022-10-16T11:06:43;0.85;;;0.85;;
15996;SDS011;8103;51.340;12.326;2022-10-16T11:09:24;2.47;;;1.00;;
15996;SDS011;8103;51.340;12.326;2022-10-16T11:12:02;2.33;;;0.98;;
15996;SDS011;8103;51.340;12.326;2022-10-16T11:17:59;1.52;;;0.80;;
15996;SDS011;8103;51.340;12.326;2022-10-16T11:20:34;1.35;;;0.90;;
15996;SDS011;8103;51.340;12.326;2022-10-16T11:23:14;0.70;;;0.70;;
15996;SDS011;8103;51.340;12.326;2022-10-16T11:25:49;1.35;;;1.17;;
15996;SDS011;8103;51.340;12.326;2022-10-16T11:33:45;1.13;;;1.00;;
15996;SDS011;8103;51.340;12.326;2022-10-16T11:42:10;1.60;;;1.15;;
15996;SDS011;8103;51.340;12.326;2022-10-16T11:48:12;1.95;;;0.77;;
15996;SDS011;8103;51.340;12.326;2022-10-16T11:51:21;1.20;;;1.00;;
15996;SDS011;8103;51.340;12.326;2022-10-16T11:54:26;0.90;;;0.90;;
15996;SDS011;8103;51.340;12.326;2022-10-16T11:57:13;0.90;;;0.90;;
15996;SDS011;8103;51.340;12.326;2022-10-16T11:59:54;3.88;;;1.02;;
15996;SDS011;8103;51.340;12.326;2022-10-16T12:02:40;1.10;;;0.80;;
15996;SDS011;8103;51.340;12.326;2022-10-16T12:08:26;1.02;;;0.85;;
15996;SDS011;8103;51.340;12.326;2022-10-16T12:11:03;5.97;;;1.70;;
15996;SDS011;8103;51.340;12.326;2022-10-16T12:14:03;1.20;;;1.00;;
15996;SDS011;8103;51.340;12.326;2022-10-16T12:16:52;2.53;;;1.52;;
15996;SDS011;8103;51.340;12.326;2022-10-16T12:19:29;4.90;;;1.00;;
15996;SDS011;8103;51.340;12.326;2022-10-16T12:21:59;2.53;;;0.77;;
15996;SDS011;8103;51.340;12.326;2022-10-16T12:24:31;1.63;;;0.70;;
15996;SDS011;8103;51.340;12.326;2022-10-16T12:27:20;2.15;;;0.80;;
15996;SDS011;8103;51.340;12.326;2022-10-16T12:29:58;0.50;;;0.50;;
15996;SDS011;8103;51.340;12.326;2022-10-16T12:32:33;1.17;;;0.88;;
15996;SDS011;8103;51.340;12.326;2022-10-16T12:35:17;0.63;;;0.63;;
15996;SDS011;8103;51.340;12.326;2022-10-16T12:37:52;0.90;;;0.68;;
15996;SDS011;8103;51.340;12.326;2022-10-16T12:42:59;1.67;;;0.90;;
15996;SDS011;8103;51.340;12.326;2022-10-16T12:46:02;1.10;;;0.95;;
15996;SDS011;8103;51.340;12.326;2022-10-16T12:48:37;1.65;;;1.20;;
15996;SDS011;8103;51.340;12.326;2022-10-16T12:51:24;1.60;;;1.35;;
15996;SDS011;8103;51.340;12.326;2022-10-16T13:15:30;0.68;;;0.68;;
15996;SDS011;8103;51.340;12.326;2022-10-16T13:27:27;1.05;;;0.70;;
15996;SDS011;8103;51.340;12.326;2022-10-16T13:30:27;4.20;;;3.40;;
15996;SDS011;8103;51.340;12.326;2022-10-16T13:35:33;0.73;;;0.60;;
15996;SDS011;8103;51.340;12.326;2022-10-16T13:38:13;0.50;;;0.43;;
15996;SDS011;8103;51.340;12.326;2022-10-16T13:40:50;1.33;;;0.60;;
15996;SDS011;8103;51.340;12.326;2022-10-16T13:43:33;1.27;;;1.15;;
15996;SDS011;8103;51.340;12.326;2022-10-16T13:46:20;1.58;;;0.95;;
15996;SDS011;8103;51.340;12.326;2022-10-16T13:51:31;1.13;;;1.02;;
15996;SDS011;8103;51.340;12.326;2022-10-16T13:53:59;1.08;;;0.75;;
15996;SDS011;8103;51.340;12.326;2022-10-16T13:56:30;1.20;;;0.98;;
15996;SDS011;8103;51.340;12.326;2022-10-16T13:59:03;1.13;;;1.02;;
15996;SDS011;8103;51.340;12.326;2022-10-16T14:01:33;1.10;;;0.93;;
15996;SDS011;8103;51.340;12.326;2022-10-16T14:04:08;1.00;;;0.90;;
15996;SDS011;8103;51.340;12.326;2022-10-16T14:06:43;2.38;;;2.17;;
15996;SDS011;8103;51.340;12.326;2022-10-16T14:12:02;3.13;;;1.33;;
15996;SDS011;8103;51.340;12.326;2022-10-16T14:14:42;7.13;;;1.67;;
15996;SDS011;8103;51.340;12.326;2022-10-16T14:17:18;3.50;;;1.23;;
15996;SDS011;8103;51.340;12.326;2022-10-16T14:19:52;0.85;;;0.80;;
15996;SDS011;8103;51.340;12.326;2022-10-16T14:22:32;3.20;;;1.08;;
15996;SDS011;8103;51.340;12.326;2022-10-16T14:30:55;2.15;;;1.00;;
15996;SDS011;8103;51.340;12.326;2022-10-16T14:36:05;4.50;;;1.42;;
15996;SDS011;8103;51.340;12.326;2022-10-16T14:38:35;1.40;;;1.05;;
15996;SDS011;8103;51.340;12.326;2022-10-16T14:41:05;2.97;;;2.67;;
15996;SDS011;8103;51.340;12.326;2022-10-16T14:43:36;1.85;;;1.30;;
15996;SDS011;8103;51.340;12.326;2022-10-16T14:46:15;2.35;;;1.42;;
15996;SDS011;8103;51.340;12.326;2022-10-16T14:48:59;3.67;;;1.50;;
15996;SDS011;8103;51.340;12.326;2022-10-16T14:51:47;1.20;;;1.10;;
15996;SDS011;8103;51.340;12.326;2022-10-16T14:54:16;1.35;;;1.08;;
15996;SDS011;8103;51.340;12.326;2022-10-16T14:56:52;0.93;;;0.90;;
15996;SDS011;8103;51.340;12.326;2022-10-16T14:59:39;3.00;;;2.25;;
15996;SDS011;8103;51.340;12.326;2022-10-16T15:04:48;1.50;;;1.40;;
15996;SDS011;8103;51.340;12.326;2022-10-16T15:07:16;1.67;;;1.27;;
15996;SDS011;8103;51.340;12.326;2022-10-16T15:09:43;1.50;;;0.88;;
15996;SDS011;8103;51.340;12.326;2022-10-16T15:12:11;2.25;;;1.27;;
15996;SDS011;8103;51.340;12.326;2022-10-16T15:14:38;2.55;;;1.10;;
15996;SDS011;8103;51.340;12.326;2022-10-16T15:17:07;2.00;;;1.40;;
15996;SDS011;8103;51.340;12.326;2022-10-16T15:19:37;2.25;;;1.70;;
15996;SDS011;8103;51.340;12.326;2022-10-16T15:22:04;3.22;;;1.50;;
15996;SDS011;8103;51.340;12.326;2022-10-16T15:24:31;1.83;;;1.65;;
15996;SDS011;8103;51.340;12.326;2022-10-16T15:26:58;1.67;;;1.35;;
15996;SDS011;8103;51.340;12.326;2022-10-16T15:29:25;1.73;;;1.17;;
15996;SDS011;8103;51.340;12.326;2022-10-16T15:31:52;1.45;;;1.20;;
15996;SDS011;8103;51.340;12.326;2022-10-16T15:34:19;1.63;;;1.08;;
15996;SDS011;8103;51.340;12.326;2022-10-16T15:36:46;1.60;;;1.50;;
15996;SDS011;8103;51.340;12.326;2022-10-16T15:39:17;1.42;;;1.33;;
15996;SDS011;8103;51.340;12.326;2022-10-16T15:41:46;2.13;;;1.67;;
15996;SDS011;8103;51.340;12.326;2022-10-16T15:44:17;2.38;;;2.17;;
15996;SDS011;8103;51.340;12.326;2022-10-16T15:46:44;2.78;;;2.50;;
15996;SDS011;8103;51.340;12.326;2022-10-16T15:49:13;2.47;;;2.10;;
15996;SDS011;8103;51.340;12.326;2022-10-16T15:51:41;2.72;;;2.20;;
15996;SDS011;8103;51.340;12.326;2022-10-16T15:54:08;4.70;;;3.33;;
15996;SDS011;8103;51.340;12.326;2022-10-16T15:56:36;2.78;;;2.47;;
15996;SDS011;8103;51.340;12.326;2022-10-16T15:59:03;2.53;;;1.90;;
15996;SDS011;8103;51.340;12.326;2022-10-16T16:01:34;2.45;;;2.10;;
15996;SDS011;8103;51.340;12.326;2022-10-16T16:04:02;2.35;;;2.00;;
15996;SDS011;8103;51.340;12.326;2022-10-16T16:06:35;1.67;;;1.58;;
15996;SDS011;8103;51.340;12.326;2022-10-16T16:09:05;2.00;;;1.50;;
15996;SDS011;8103;51.340;12.326;2022-10-16T16:11:32;8.40;;;2.53;;
15996;SDS011;8103;51.340;12.326;2022-10-16T16:14:04;4.28;;;2.08;;
15996;SDS011;8103;51.340;12.326;2022-10-16T16:16:32;3.28;;;2.33;;
15996;SDS011;8103;51.340;12.326;2022-10-16T16:19:06;1.77;;;1.52;;
15996;SDS011;8103;51.340;12.326;2022-10-16T16:21:36;3.05;;;1.58;;
15996;SDS011;8103;51.340;12.326;2022-10-16T16:24:04;2.10;;;1.92;;
15996;SDS011;8103;51.340;12.326;2022-10-16T16:26:34;2.42;;;2.03;;
15996;SDS011;8103;51.340;12.326;2022-10-16T16:29:05;3.35;;;2.03;;
15996;SDS011;8103;51.340;12.326;2022-10-16T16:31:33;2.00;;;1.63;;
15996;SDS011;8103;51.340;12.326;2022-10-16T16:34:01;2.13;;;1.92;;
15996;SDS011;8103;51.340;12.326;2022-10-16T16:36:28;1.67;;;1.58;;
15996;SDS011;8103;51.340;12.326;2022-10-16T16:38:55;1.58;;;1.48;;
15996;SDS011;8103;51.340;12.326;2022-10-16T16:41:24;1.65;;;1.45;;
15996;SDS011;8103;51.340;12.326;2022-10-16T16:43:54;4.28;;;2.33;;
15996;SDS011;8103;51.340;12.326;2022-10-16T16:46:30;3.05;;;2.42;;
15996;SDS011;8103;51.340;12.326;2022-10-16T16:48:59;2.53;;;2.22;;
15996;SDS011;8103;51.340;12.326;2022-10-16T16:51:27;2.65;;;2.45;;
15996;SDS011;8103;51.340;12.326;2022-10-16T16:53:55;2.83;;;2.53;;
15996;SDS011;8103;51.340;12.326;2022-10-16T16:56:23;2.50;;;2.30;;
15996;SDS011;8103;51.340;12.326;2022-10-16T16:58:54;2.53;;;2.17;;
15996;SDS011;8103;51.340;12.326;2022-10-16T17:01:23;3.53;;;2.50;;
15996;SDS011;8103;51.340;12.326;2022-10-16T17:03:53;5.45;;;2.63;;
15996;SDS011;8103;51.340;12.326;2022-10-16T17:06:23;2.45;;;2.03;;
15996;SDS011;8103;51.340;12.326;2022-10-16T17:08:55;2.30;;;1.88;;
15996;SDS011;8103;51.340;12.326;2022-10-16T17:11:24;2.15;;;1.95;;
15996;SDS011;8103;51.340;12.326;2022-10-16T17:13:53;2.33;;;2.13;;
15996;SDS011;8103;51.340;12.326;2022-10-16T17:16:29;3.25;;;2.83;;
15996;SDS011;8103;51.340;12.326;2022-10-16T17:19:06;5.13;;;4.00;;